sensor_id;sensor_type;location;lat;lon;timestamp;P1;durP1;ratioP1;P2;durP2;ratioP2
9447;SDS011;4762;48.128;11.376;2023-06-05T00:01:10;3.80;;;1.90;;
9447;SDS011;4762;48.128;11.376;2023-06-05T00:03:13;5.27;;;1.73;;
9447;SDS011;4762;48.128;11.376;2023-06-05T00:05:15;3.57;;;1.70;;
9447;SDS011;4762;48.128;11.376;2023-06-05T00:07:17;4.70;;;1.67;;
9447;SDS011;4762;48.128;11.376;2023-06-05T00:09:19;4.50;;;2.03;;
9447;SDS011;4762;48.128;11.376;2023-06-05T00:11:22;7.60;;;2.03;;
9447;SDS011;4762;48.128;11.376;2023-06-05T00:13:25;3.80;;;1.80;;
9447;SDS011;4762;48.128;11.376;2023-06-05T00:15:27;4.13;;;2.07;;
9447;SDS011;4762;48.128;11.376;2023-06-05T00:17:29;4.10;;;1.50;;
9447;SDS011;4762;48.128;11.376;2023-06-05T00:19:31;3.87;;;1.73;;
9447;SDS011;4762;48.128;11.376;2023-06-05T00:21:33;4.20;;;2.00;;
9447;SDS011;4762;48.128;11.376;2023-06-05T00:23:36;4.13;;;1.50;;
9447;SDS011;4762;48.128;11.376;2023-06-05T00:25:38;3.83;;;1.77;;
9447;SDS011;4762;48.128;11.376;2023-06-05T00:27:40;5.27;;;2.10;;
9447;SDS011;4762;48.128;11.376;2023-06-05T00:29:42;4.60;;;2.50;;
9447;SDS011;4762;48.128;11.376;2023-06-05T00:31:45;3.83;;;1.60;;
9447;SDS011;4762;48.128;11.376;2023-06-05T00:33:48;4.63;;;1.90;;
9447;SDS011;4762;48.128;11.376;2023-06-05T00:35:50;6.80;;;1.90;;
9447;SDS011;4762;48.128;11.376;2023-06-05T00:37:52;3.33;;;1.60;;
9447;SDS011;4762;48.128;11.376;2023-06-05T00:39:54;3.77;;;1.97;;
9447;SDS011;4762;48.128;11.376;2023-06-05T00:41:56;3.43;;;1.70;;
9447;SDS011;4762;48.128;11.376;2023-06-05T00:43:59;4.73;;;2.13;;
9447;SDS011;4762;48.128;11.376;2023-06-05T00:46:02;3.57;;;1.60;;
9447;SDS011;4762;48.128;11.376;2023-06-05T00:48:04;3.90;;;1.70;;
9447;SDS011;4762;48.128;11.376;2023-06-05T00:50:06;3.90;;;1.90;;
9447;SDS011;4762;48.128;11.376;2023-06-05T00:52:09;3.90;;;1.90;;
9447;SDS011;4762;48.128;11.376;2023-06-05T00:54:11;3.53;;;1.53;;
9447;SDS011;4762;48.128;11.376;2023-06-05T00:56:13;4.83;;;2.50;;
9447;SDS011;4762;48.128;11.376;2023-06-05T00:58:15;4.70;;;2.00;;
9447;SDS011;4762;48.128;11.376;2023-06-05T01:00:18;7.17;;;2.57;;
9447;SDS011;4762;48.128;11.376;2023-06-05T01:02:20;6.83;;;2.40;;
9447;SDS011;4762;48.128;11.376;2023-06-05T01:04:22;5.23;;;2.13;;
9447;SDS011;4762;48.128;11.376;2023-06-05T01:06:25;5.10;;;1.93;;
9447;SDS011;4762;48.128;11.376;2023-06-05T01:08:27;3.50;;;1.70;;
9447;SDS011;4762;48.128;11.376;2023-06-05T01:10:30;3.63;;;1.60;;
9447;SDS011;4762;48.128;11.376;2023-06-05T01:12:35;4.40;;;1.97;;
9447;SDS011;4762;48.128;11.376;2023-06-05T01:14:40;5.00;;;2.30;;
9447;SDS011;4762;48.128;11.376;2023-06-05T01:16:43;4.43;;;1.73;;
9447;SDS011;4762;48.128;11.376;2023-06-05T01:18:45;4.50;;;2.17;;
9447;SDS011;4762;48.128;11.376;2023-06-05T01:20:48;3.87;;;2.00;;
9447;SDS011;4762;48.128;11.376;2023-06-05T01:22:50;3.70;;;1.93;;
9447;SDS011;4762;48.128;11.376;2023-06-05T01:24:53;6.07;;;2.50;;
9447;SDS011;4762;48.128;11.376;2023-06-05T01:26:59;3.87;;;2.07;;
9447;SDS011;4762;48.128;11.376;2023-06-05T01:29:02;3.07;;;1.33;;
9447;SDS011;4762;48.128;11.376;2023-06-05T01:31:06;3.87;;;1.80;;
9447;SDS011;4762;48.128;11.376;2023-06-05T01:33:11;5.10;;;2.30;;
9447;SDS011;4762;48.128;11.376;2023-06-05T01:35:13;7.60;;;2.50;;
9447;SDS011;4762;48.128;11.376;2023-06-05T01:37:17;6.77;;;2.37;;
9447;SDS011;4762;48.128;11.376;2023-06-05T01:39:19;5.83;;;2.00;;
9447;SDS011;4762;48.128;11.376;2023-06-05T01:41:21;5.40;;;2.30;;
9447;SDS011;4762;48.128;11.376;2023-06-05T01:43:23;4.87;;;2.23;;
9447;SDS011;4762;48.128;11.376;2023-06-05T01:45:26;5.90;;;2.50;;
9447;SDS011;4762;48.128;11.376;2023-06-05T01:47:28;5.30;;;2.70;;
9447;SDS011;4762;48.128;11.376;2023-06-05T01:49:30;3.90;;;1.67;;
9447;SDS011;4762;48.128;11.376;2023-06-05T01:51:32;3.73;;;2.20;;
9447;SDS011;4762;48.128;11.376;2023-06-05T01:53:34;4.60;;;2.50;;
9447;SDS011;4762;48.128;11.376;2023-06-05T01:55:37;4.00;;;2.10;;
9447;SDS011;4762;48.128;11.376;2023-06-05T01:57:39;5.07;;;2.20;;
9447;SDS011;4762;48.128;11.376;2023-06-05T01:59:41;4.40;;;1.90;;
9447;SDS011;4762;48.128;11.376;2023-06-05T02:01:43;5.27;;;2.50;;
9447;SDS011;4762;48.128;11.376;2023-06-05T02:03:46;4.50;;;2.40;;
9447;SDS011;4762;48.128;11.376;2023-06-05T02:05:48;4.43;;;2.10;;
9447;SDS011;4762;48.128;11.376;2023-06-05T02:07:50;4.30;;;2.20;;
9447;SDS011;4762;48.128;11.376;2023-06-05T02:09:54;4.23;;;2.10;;
9447;SDS011;4762;48.128;11.376;2023-06-05T02:11:56;3.77;;;2.10;;
9447;SDS011;4762;48.128;11.376;2023-06-05T02:13:59;3.73;;;2.03;;
9447;SDS011;4762;48.128;11.376;2023-06-05T02:16:01;3.70;;;1.67;;
9447;SDS011;4762;48.128;11.376;2023-06-05T02:18:03;4.07;;;1.70;;
9447;SDS011;4762;48.128;11.376;2023-06-05T02:20:05;5.07;;;2.03;;
9447;SDS011;4762;48.128;11.376;2023-06-05T02:22:08;6.77;;;1.77;;
9447;SDS011;4762;48.128;11.376;2023-06-05T02:24:10;6.77;;;2.30;;
9447;SDS011;4762;48.128;11.376;2023-06-05T02:26:12;5.03;;;2.60;;
9447;SDS011;4762;48.128;11.376;2023-06-05T02:28:15;3.73;;;2.03;;
9447;SDS011;4762;48.128;11.376;2023-06-05T02:30:17;3.50;;;1.80;;
9447;SDS011;4762;48.128;11.376;2023-06-05T02:32:19;4.03;;;2.30;;
9447;SDS011;4762;48.128;11.376;2023-06-05T02:34:21;3.10;;;1.50;;
9447;SDS011;4762;48.128;11.376;2023-06-05T02:36:23;4.83;;;2.60;;
9447;SDS011;4762;48.128;11.376;2023-06-05T02:38:26;4.37;;;2.60;;
9447;SDS011;4762;48.128;11.376;2023-06-05T02:40:28;5.13;;;2.10;;
9447;SDS011;4762;48.128;11.376;2023-06-05T02:42:30;3.67;;;1.60;;
9447;SDS011;4762;48.128;11.376;2023-06-05T02:44:32;4.13;;;1.73;;
9447;SDS011;4762;48.128;11.376;2023-06-05T02:46:35;4.43;;;2.40;;
9447;SDS011;4762;48.128;11.376;2023-06-05T02:48:37;5.53;;;1.87;;
9447;SDS011;4762;48.128;11.376;2023-06-05T02:50:40;4.07;;;2.27;;
9447;SDS011;4762;48.128;11.376;2023-06-05T02:52:42;3.30;;;1.70;;
9447;SDS011;4762;48.128;11.376;2023-06-05T02:54:44;4.53;;;1.97;;
9447;SDS011;4762;48.128;11.376;2023-06-05T02:56:47;5.80;;;2.73;;
9447;SDS011;4762;48.128;11.376;2023-06-05T02:58:49;5.90;;;2.37;;
9447;SDS011;4762;48.128;11.376;2023-06-05T03:00:51;4.97;;;2.53;;
9447;SDS011;4762;48.128;11.376;2023-06-05T03:02:53;4.33;;;2.60;;
9447;SDS011;4762;48.128;11.376;2023-06-05T03:04:55;4.30;;;2.30;;
9447;SDS011;4762;48.128;11.376;2023-06-05T03:06:58;3.80;;;1.70;;
9447;SDS011;4762;48.128;11.376;2023-06-05T03:09:00;10.80;;;2.40;;
9447;SDS011;4762;48.128;11.376;2023-06-05T03:11:02;11.10;;;2.40;;
9447;SDS011;4762;48.128;11.376;2023-06-05T03:13:04;4.17;;;2.20;;
9447;SDS011;4762;48.128;11.376;2023-06-05T03:15:06;5.93;;;2.93;;
9447;SDS011;4762;48.128;11.376;2023-06-05T03:17:09;4.63;;;2.07;;
9447;SDS011;4762;48.128;11.376;2023-06-05T03:19:11;4.23;;;2.00;;
9447;SDS011;4762;48.128;11.376;2023-06-05T03:21:13;5.20;;;2.80;;
9447;SDS011;4762;48.128;11.376;2023-06-05T03:23:15;3.37;;;1.63;;
9447;SDS011;4762;48.128;11.376;2023-06-05T03:25:18;6.30;;;2.80;;
9447;SDS011;4762;48.128;11.376;2023-06-05T03:27:20;4.40;;;2.30;;
9447;SDS011;4762;48.128;11.376;2023-06-05T03:29:22;4.03;;;2.20;;
9447;SDS011;4762;48.128;11.376;2023-06-05T03:31:25;5.00;;;2.37;;
9447;SDS011;4762;48.128;11.376;2023-06-05T03:33:27;4.53;;;2.13;;
9447;SDS011;4762;48.128;11.376;2023-06-05T03:35:30;3.83;;;1.97;;
9447;SDS011;4762;48.128;11.376;2023-06-05T03:37:34;4.10;;;1.53;;
9447;SDS011;4762;48.128;11.376;2023-06-05T03:39:36;5.20;;;2.57;;
9447;SDS011;4762;48.128;11.376;2023-06-05T03:41:38;3.40;;;1.73;;
9447;SDS011;4762;48.128;11.376;2023-06-05T03:43:41;3.33;;;1.70;;
9447;SDS011;4762;48.128;11.376;2023-06-05T03:45:43;4.40;;;2.43;;
9447;SDS011;4762;48.128;11.376;2023-06-05T03:47:45;3.80;;;2.03;;
9447;SDS011;4762;48.128;11.376;2023-06-05T03:49:48;5.50;;;2.77;;
9447;SDS011;4762;48.128;11.376;2023-06-05T03:51:50;5.47;;;2.97;;
9447;SDS011;4762;48.128;11.376;2023-06-05T03:53:52;4.30;;;2.97;;
9447;SDS011;4762;48.128;11.376;2023-06-05T03:55:54;6.00;;;2.97;;
9447;SDS011;4762;48.128;11.376;2023-06-05T03:57:56;4.87;;;2.60;;
9447;SDS011;4762;48.128;11.376;2023-06-05T03:59:59;3.60;;;2.23;;
9447;SDS011;4762;48.128;11.376;2023-06-05T04:02:01;5.60;;;2.90;;
9447;SDS011;4762;48.128;11.376;2023-06-05T04:04:03;4.47;;;2.57;;
9447;SDS011;4762;48.128;11.376;2023-06-05T04:06:06;5.93;;;2.77;;
9447;SDS011;4762;48.128;11.376;2023-06-05T04:08:08;5.13;;;2.93;;
9447;SDS011;4762;48.128;11.376;2023-06-05T04:10:11;7.33;;;3.40;;
9447;SDS011;4762;48.128;11.376;2023-06-05T04:12:13;8.23;;;3.10;;
9447;SDS011;4762;48.128;11.376;2023-06-05T04:14:16;5.40;;;2.50;;
9447;SDS011;4762;48.128;11.376;2023-06-05T04:16:18;5.43;;;3.20;;
9447;SDS011;4762;48.128;11.376;2023-06-05T04:18:20;4.43;;;2.60;;
9447;SDS011;4762;48.128;11.376;2023-06-05T04:20:22;4.10;;;2.53;;
9447;SDS011;4762;48.128;11.376;2023-06-05T04:22:25;4.40;;;2.87;;
9447;SDS011;4762;48.128;11.376;2023-06-05T04:24:27;3.97;;;2.40;;
9447;SDS011;4762;48.128;11.376;2023-06-05T04:26:29;5.83;;;3.07;;
9447;SDS011;4762;48.128;11.376;2023-06-05T04:28:31;4.70;;;3.00;;
9447;SDS011;4762;48.128;11.376;2023-06-05T04:30:33;4.60;;;3.17;;
9447;SDS011;4762;48.128;11.376;2023-06-05T04:32:36;5.23;;;3.10;;
9447;SDS011;4762;48.128;11.376;2023-06-05T04:34:39;5.13;;;2.90;;
9447;SDS011;4762;48.128;11.376;2023-06-05T04:36:41;5.10;;;2.80;;
9447;SDS011;4762;48.128;11.376;2023-06-05T04:38:43;5.40;;;3.00;;
9447;SDS011;4762;48.128;11.376;2023-06-05T04:40:45;4.77;;;2.80;;
9447;SDS011;4762;48.128;11.376;2023-06-05T04:42:48;5.60;;;2.63;;
9447;SDS011;4762;48.128;11.376;2023-06-05T04:44:57;6.80;;;3.50;;
9447;SDS011;4762;48.128;11.376;2023-06-05T04:46:58;6.47;;;3.10;;
9447;SDS011;4762;48.128;11.376;2023-06-05T04:49:01;6.37;;;3.80;;
9447;SDS011;4762;48.128;11.376;2023-06-05T04:51:03;5.57;;;2.70;;
9447;SDS011;4762;48.128;11.376;2023-06-05T04:53:05;4.83;;;2.70;;
9447;SDS011;4762;48.128;11.376;2023-06-05T04:55:08;6.73;;;4.03;;
9447;SDS011;4762;48.128;11.376;2023-06-05T04:57:10;6.57;;;3.80;;
9447;SDS011;4762;48.128;11.376;2023-06-05T04:59:12;6.63;;;3.27;;
9447;SDS011;4762;48.128;11.376;2023-06-05T05:01:14;5.03;;;3.43;;
9447;SDS011;4762;48.128;11.376;2023-06-05T05:03:17;6.43;;;3.47;;
9447;SDS011;4762;48.128;11.376;2023-06-05T05:05:19;5.13;;;3.20;;
9447;SDS011;4762;48.128;11.376;2023-06-05T05:07:21;5.57;;;3.07;;
9447;SDS011;4762;48.128;11.376;2023-06-05T05:09:23;9.23;;;3.97;;
9447;SDS011;4762;48.128;11.376;2023-06-05T05:11:25;6.87;;;3.37;;
9447;SDS011;4762;48.128;11.376;2023-06-05T05:13:28;6.40;;;3.37;;
9447;SDS011;4762;48.128;11.376;2023-06-05T05:15:30;6.13;;;3.50;;
9447;SDS011;4762;48.128;11.376;2023-06-05T05:17:32;6.23;;;3.33;;
9447;SDS011;4762;48.128;11.376;2023-06-05T05:19:35;6.00;;;3.47;;
9447;SDS011;4762;48.128;11.376;2023-06-05T05:21:37;6.73;;;4.10;;
9447;SDS011;4762;48.128;11.376;2023-06-05T05:23:40;6.00;;;3.00;;
9447;SDS011;4762;48.128;11.376;2023-06-05T05:25:42;6.80;;;3.10;;
9447;SDS011;4762;48.128;11.376;2023-06-05T05:27:44;4.20;;;2.70;;
9447;SDS011;4762;48.128;11.376;2023-06-05T05:29:46;6.20;;;3.30;;
9447;SDS011;4762;48.128;11.376;2023-06-05T05:31:49;6.70;;;3.17;;
9447;SDS011;4762;48.128;11.376;2023-06-05T05:33:51;6.90;;;4.03;;
9447;SDS011;4762;48.128;11.376;2023-06-05T05:35:53;5.73;;;2.90;;
9447;SDS011;4762;48.128;11.376;2023-06-05T05:37:55;7.80;;;3.53;;
9447;SDS011;4762;48.128;11.376;2023-06-05T05:39:57;6.93;;;3.63;;
9447;SDS011;4762;48.128;11.376;2023-06-05T05:42:00;8.10;;;3.70;;
9447;SDS011;4762;48.128;11.376;2023-06-05T05:44:02;5.13;;;3.10;;
9447;SDS011;4762;48.128;11.376;2023-06-05T05:46:04;6.40;;;2.90;;
9447;SDS011;4762;48.128;11.376;2023-06-05T05:48:06;6.03;;;3.50;;
9447;SDS011;4762;48.128;11.376;2023-06-05T05:50:09;5.37;;;3.60;;
9447;SDS011;4762;48.128;11.376;2023-06-05T05:52:11;5.33;;;3.30;;
9447;SDS011;4762;48.128;11.376;2023-06-05T05:54:14;5.50;;;3.20;;
9447;SDS011;4762;48.128;11.376;2023-06-05T05:56:16;5.27;;;3.40;;
9447;SDS011;4762;48.128;11.376;2023-06-05T05:58:18;7.37;;;4.17;;
9447;SDS011;4762;48.128;11.376;2023-06-05T06:00:21;4.80;;;3.30;;
9447;SDS011;4762;48.128;11.376;2023-06-05T06:04:32;6.90;;;3.93;;
9447;SDS011;4762;48.128;11.376;2023-06-05T06:06:34;5.30;;;3.20;;
9447;SDS011;4762;48.128;11.376;2023-06-05T06:08:36;6.07;;;3.20;;
9447;SDS011;4762;48.128;11.376;2023-06-05T06:10:38;6.53;;;3.97;;
9447;SDS011;4762;48.128;11.376;2023-06-05T06:12:41;6.50;;;3.60;;
9447;SDS011;4762;48.128;11.376;2023-06-05T06:14:43;5.07;;;3.40;;
9447;SDS011;4762;48.128;11.376;2023-06-05T06:16:45;5.50;;;3.40;;
9447;SDS011;4762;48.128;11.376;2023-06-05T06:18:47;6.33;;;3.80;;
9447;SDS011;4762;48.128;11.376;2023-06-05T06:20:49;5.23;;;3.43;;
9447;SDS011;4762;48.128;11.376;2023-06-05T06:22:52;7.07;;;3.87;;
9447;SDS011;4762;48.128;11.376;2023-06-05T06:24:54;9.30;;;4.00;;
9447;SDS011;4762;48.128;11.376;2023-06-05T06:26:56;9.20;;;4.40;;
9447;SDS011;4762;48.128;11.376;2023-06-05T06:28:58;10.63;;;3.97;;
9447;SDS011;4762;48.128;11.376;2023-06-05T06:31:01;7.60;;;3.27;;
9447;SDS011;4762;48.128;11.376;2023-06-05T06:33:03;4.83;;;2.77;;
9447;SDS011;4762;48.128;11.376;2023-06-05T06:35:05;6.13;;;2.90;;
9447;SDS011;4762;48.128;11.376;2023-06-05T06:37:08;4.70;;;3.03;;
9447;SDS011;4762;48.128;11.376;2023-06-05T06:39:10;5.70;;;3.00;;
9447;SDS011;4762;48.128;11.376;2023-06-05T06:41:12;5.77;;;3.47;;
9447;SDS011;4762;48.128;11.376;2023-06-05T06:43:14;4.77;;;3.27;;
9447;SDS011;4762;48.128;11.376;2023-06-05T06:45:17;8.70;;;3.90;;
9447;SDS011;4762;48.128;11.376;2023-06-05T06:47:19;5.33;;;3.00;;
9447;SDS011;4762;48.128;11.376;2023-06-05T06:49:21;4.20;;;2.83;;
9447;SDS011;4762;48.128;11.376;2023-06-05T06:51:23;6.60;;;3.70;;
9447;SDS011;4762;48.128;11.376;2023-06-05T06:53:25;6.40;;;3.47;;
9447;SDS011;4762;48.128;11.376;2023-06-05T06:55:28;4.90;;;2.70;;
9447;SDS011;4762;48.128;11.376;2023-06-05T06:57:30;5.07;;;3.00;;
9447;SDS011;4762;48.128;11.376;2023-06-05T06:59:32;7.23;;;3.00;;
9447;SDS011;4762;48.128;11.376;2023-06-05T07:01:34;4.53;;;2.80;;
9447;SDS011;4762;48.128;11.376;2023-06-05T07:03:37;7.63;;;3.47;;
9447;SDS011;4762;48.128;11.376;2023-06-05T07:05:39;8.10;;;3.10;;
9447;SDS011;4762;48.128;11.376;2023-06-05T07:07:41;6.50;;;3.37;;
9447;SDS011;4762;48.128;11.376;2023-06-05T07:09:44;4.80;;;2.73;;
9447;SDS011;4762;48.128;11.376;2023-06-05T07:11:46;5.00;;;3.37;;
9447;SDS011;4762;48.128;11.376;2023-06-05T07:13:48;4.90;;;2.53;;
9447;SDS011;4762;48.128;11.376;2023-06-05T07:15:51;6.57;;;3.13;;
9447;SDS011;4762;48.128;11.376;2023-06-05T07:17:52;4.87;;;2.83;;
9447;SDS011;4762;48.128;11.376;2023-06-05T07:19:56;5.07;;;2.53;;
9447;SDS011;4762;48.128;11.376;2023-06-05T07:21:59;6.90;;;2.47;;
9447;SDS011;4762;48.128;11.376;2023-06-05T07:24:00;5.60;;;3.10;;
9447;SDS011;4762;48.128;11.376;2023-06-05T07:26:03;5.70;;;3.40;;
9447;SDS011;4762;48.128;11.376;2023-06-05T07:28:08;6.20;;;3.23;;
9447;SDS011;4762;48.128;11.376;2023-06-05T07:30:09;6.03;;;3.10;;
9447;SDS011;4762;48.128;11.376;2023-06-05T07:32:12;7.60;;;3.23;;
9447;SDS011;4762;48.128;11.376;2023-06-05T07:34:15;4.50;;;2.73;;
9447;SDS011;4762;48.128;11.376;2023-06-05T07:36:17;5.93;;;2.57;;
9447;SDS011;4762;48.128;11.376;2023-06-05T07:38:19;12.57;;;2.90;;
9447;SDS011;4762;48.128;11.376;2023-06-05T07:40:22;4.10;;;2.23;;
9447;SDS011;4762;48.128;11.376;2023-06-05T07:42:24;7.33;;;2.60;;
9447;SDS011;4762;48.128;11.376;2023-06-05T07:44:26;3.50;;;2.10;;
9447;SDS011;4762;48.128;11.376;2023-06-05T07:46:28;5.77;;;2.67;;
9447;SDS011;4762;48.128;11.376;2023-06-05T07:48:31;4.80;;;2.23;;
9447;SDS011;4762;48.128;11.376;2023-06-05T07:50:33;4.10;;;2.73;;
9447;SDS011;4762;48.128;11.376;2023-06-05T07:52:35;7.47;;;2.97;;
9447;SDS011;4762;48.128;11.376;2023-06-05T07:54:37;5.30;;;2.80;;
9447;SDS011;4762;48.128;11.376;2023-06-05T07:56:39;6.50;;;3.27;;
9447;SDS011;4762;48.128;11.376;2023-06-05T07:58:42;4.90;;;2.73;;
9447;SDS011;4762;48.128;11.376;2023-06-05T08:00:44;6.00;;;3.40;;
9447;SDS011;4762;48.128;11.376;2023-06-05T08:02:46;5.50;;;2.67;;
9447;SDS011;4762;48.128;11.376;2023-06-05T08:04:49;7.73;;;3.40;;
9447;SDS011;4762;48.128;11.376;2023-06-05T08:06:52;4.93;;;2.70;;
9447;SDS011;4762;48.128;11.376;2023-06-05T08:08:55;8.60;;;3.77;;
9447;SDS011;4762;48.128;11.376;2023-06-05T08:10:57;4.80;;;3.10;;
9447;SDS011;4762;48.128;11.376;2023-06-05T08:12:59;5.60;;;2.53;;
9447;SDS011;4762;48.128;11.376;2023-06-05T08:15:01;3.53;;;1.80;;
9447;SDS011;4762;48.128;11.376;2023-06-05T08:17:04;4.53;;;2.60;;
9447;SDS011;4762;48.128;11.376;2023-06-05T08:19:06;3.90;;;2.30;;
9447;SDS011;4762;48.128;11.376;2023-06-05T08:21:08;5.80;;;2.80;;
9447;SDS011;4762;48.128;11.376;2023-06-05T08:23:10;6.30;;;3.03;;
9447;SDS011;4762;48.128;11.376;2023-06-05T08:25:13;7.90;;;3.47;;
9447;SDS011;4762;48.128;11.376;2023-06-05T08:27:16;6.67;;;3.13;;
9447;SDS011;4762;48.128;11.376;2023-06-05T08:29:18;5.70;;;3.23;;
9447;SDS011;4762;48.128;11.376;2023-06-05T08:31:20;6.10;;;2.80;;
9447;SDS011;4762;48.128;11.376;2023-06-05T08:33:22;5.10;;;2.47;;
9447;SDS011;4762;48.128;11.376;2023-06-05T08:35:25;5.23;;;2.60;;
9447;SDS011;4762;48.128;11.376;2023-06-05T08:37:28;4.90;;;2.57;;
9447;SDS011;4762;48.128;11.376;2023-06-05T08:39:30;3.93;;;2.27;;
9447;SDS011;4762;48.128;11.376;2023-06-05T08:41:33;4.13;;;2.20;;
9447;SDS011;4762;48.128;11.376;2023-06-05T08:43:36;4.17;;;2.07;;
9447;SDS011;4762;48.128;11.376;2023-06-05T08:45:40;9.00;;;3.50;;
9447;SDS011;4762;48.128;11.376;2023-06-05T08:47:42;5.17;;;2.80;;
9447;SDS011;4762;48.128;11.376;2023-06-05T08:49:44;11.03;;;2.63;;
9447;SDS011;4762;48.128;11.376;2023-06-05T08:51:47;7.30;;;2.60;;
9447;SDS011;4762;48.128;11.376;2023-06-05T08:53:51;4.93;;;2.60;;
9447;SDS011;4762;48.128;11.376;2023-06-05T08:55:53;5.20;;;2.83;;
9447;SDS011;4762;48.128;11.376;2023-06-05T08:57:55;4.57;;;2.50;;
9447;SDS011;4762;48.128;11.376;2023-06-05T08:59:57;4.90;;;2.80;;
9447;SDS011;4762;48.128;11.376;2023-06-05T09:02:00;4.67;;;2.30;;
9447;SDS011;4762;48.128;11.376;2023-06-05T09:04:02;5.40;;;3.00;;
9447;SDS011;4762;48.128;11.376;2023-06-05T09:06:05;5.97;;;2.63;;
9447;SDS011;4762;48.128;11.376;2023-06-05T09:08:07;6.20;;;2.73;;
9447;SDS011;4762;48.128;11.376;2023-06-05T09:10:27;5.10;;;2.73;;
9447;SDS011;4762;48.128;11.376;2023-06-05T09:12:28;4.70;;;2.40;;
9447;SDS011;4762;48.128;11.376;2023-06-05T09:14:31;4.63;;;2.20;;
9447;SDS011;4762;48.128;11.376;2023-06-05T09:16:35;4.40;;;2.30;;
9447;SDS011;4762;48.128;11.376;2023-06-05T09:18:54;6.13;;;2.60;;
9447;SDS011;4762;48.128;11.376;2023-06-05T09:20:55;4.70;;;2.50;;
9447;SDS011;4762;48.128;11.376;2023-06-05T09:22:57;5.13;;;2.40;;
9447;SDS011;4762;48.128;11.376;2023-06-05T09:25:00;5.20;;;2.63;;
9447;SDS011;4762;48.128;11.376;2023-06-05T09:27:04;6.20;;;3.27;;
9447;SDS011;4762;48.128;11.376;2023-06-05T09:29:08;4.27;;;2.37;;
9447;SDS011;4762;48.128;11.376;2023-06-05T09:31:10;6.03;;;2.40;;
9447;SDS011;4762;48.128;11.376;2023-06-05T09:33:12;4.63;;;2.20;;
9447;SDS011;4762;48.128;11.376;2023-06-05T09:35:16;5.00;;;2.87;;
9447;SDS011;4762;48.128;11.376;2023-06-05T09:37:18;5.63;;;3.13;;
9447;SDS011;4762;48.128;11.376;2023-06-05T09:39:21;4.10;;;2.00;;
9447;SDS011;4762;48.128;11.376;2023-06-05T09:41:23;4.83;;;2.67;;
9447;SDS011;4762;48.128;11.376;2023-06-05T09:43:26;5.80;;;2.93;;
9447;SDS011;4762;48.128;11.376;2023-06-05T09:50:02;4.43;;;2.50;;
9447;SDS011;4762;48.128;11.376;2023-06-05T09:52:04;8.43;;;2.87;;
9447;SDS011;4762;48.128;11.376;2023-06-05T09:54:06;5.23;;;2.50;;
9447;SDS011;4762;48.128;11.376;2023-06-05T09:56:12;7.50;;;2.67;;
9447;SDS011;4762;48.128;11.376;2023-06-05T09:58:14;6.27;;;2.53;;
9447;SDS011;4762;48.128;11.376;2023-06-05T10:00:16;4.60;;;2.70;;
9447;SDS011;4762;48.128;11.376;2023-06-05T10:02:20;5.73;;;2.40;;
9447;SDS011;4762;48.128;11.376;2023-06-05T10:04:23;5.70;;;2.93;;
9447;SDS011;4762;48.128;11.376;2023-06-05T10:06:26;6.17;;;2.83;;
9447;SDS011;4762;48.128;11.376;2023-06-05T10:08:27;5.33;;;2.60;;
9447;SDS011;4762;48.128;11.376;2023-06-05T10:10:32;4.97;;;2.63;;
9447;SDS011;4762;48.128;11.376;2023-06-05T10:12:34;5.37;;;2.70;;
9447;SDS011;4762;48.128;11.376;2023-06-05T10:14:36;4.57;;;2.23;;
9447;SDS011;4762;48.128;11.376;2023-06-05T10:16:38;6.33;;;2.70;;
9447;SDS011;4762;48.128;11.376;2023-06-05T10:18:40;5.17;;;2.60;;
9447;SDS011;4762;48.128;11.376;2023-06-05T10:20:43;6.20;;;3.10;;
9447;SDS011;4762;48.128;11.376;2023-06-05T10:22:45;7.13;;;2.67;;
9447;SDS011;4762;48.128;11.376;2023-06-05T10:24:48;5.93;;;3.00;;
9447;SDS011;4762;48.128;11.376;2023-06-05T10:27:31;5.00;;;2.17;;
9447;SDS011;4762;48.128;11.376;2023-06-05T10:29:19;8.80;;;2.70;;
9447;SDS011;4762;48.128;11.376;2023-06-05T10:31:39;6.47;;;2.27;;
9447;SDS011;4762;48.128;11.376;2023-06-05T10:33:46;4.47;;;2.07;;
9447;SDS011;4762;48.128;11.376;2023-06-05T10:36:01;6.13;;;2.50;;
9447;SDS011;4762;48.128;11.376;2023-06-05T10:40:15;4.80;;;2.57;;
9447;SDS011;4762;48.128;11.376;2023-06-05T10:42:22;5.27;;;2.50;;
9447;SDS011;4762;48.128;11.376;2023-06-05T10:46:46;4.40;;;2.37;;
9447;SDS011;4762;48.128;11.376;2023-06-05T10:55:42;6.30;;;2.60;;
9447;SDS011;4762;48.128;11.376;2023-06-05T11:00:05;5.10;;;2.47;;
9447;SDS011;4762;48.128;11.376;2023-06-05T11:02:22;4.93;;;2.43;;
9447;SDS011;4762;48.128;11.376;2023-06-05T11:04:25;5.77;;;2.30;;
9447;SDS011;4762;48.128;11.376;2023-06-05T11:06:27;4.53;;;1.83;;
9447;SDS011;4762;48.128;11.376;2023-06-05T11:08:29;5.63;;;2.13;;
9447;SDS011;4762;48.128;11.376;2023-06-05T11:10:31;4.93;;;2.40;;
9447;SDS011;4762;48.128;11.376;2023-06-05T11:15:00;5.80;;;2.53;;
9447;SDS011;4762;48.128;11.376;2023-06-05T11:17:20;5.80;;;2.70;;
9447;SDS011;4762;48.128;11.376;2023-06-05T11:22:01;5.37;;;2.27;;
9447;SDS011;4762;48.128;11.376;2023-06-05T11:23:39;4.17;;;2.27;;
9447;SDS011;4762;48.128;11.376;2023-06-05T11:25:41;6.07;;;2.47;;
9447;SDS011;4762;48.128;11.376;2023-06-05T11:27:44;6.43;;;2.53;;
9447;SDS011;4762;48.128;11.376;2023-06-05T11:29:45;5.20;;;2.70;;
9447;SDS011;4762;48.128;11.376;2023-06-05T11:31:48;5.37;;;2.77;;
9447;SDS011;4762;48.128;11.376;2023-06-05T11:33:50;4.50;;;2.37;;
9447;SDS011;4762;48.128;11.376;2023-06-05T11:35:59;4.33;;;2.07;;
9447;SDS011;4762;48.128;11.376;2023-06-05T11:40:09;4.40;;;2.17;;
9447;SDS011;4762;48.128;11.376;2023-06-05T11:42:11;4.60;;;1.90;;
9447;SDS011;4762;48.128;11.376;2023-06-05T11:44:32;5.17;;;3.00;;
9447;SDS011;4762;48.128;11.376;2023-06-05T11:46:36;4.90;;;2.13;;
9447;SDS011;4762;48.128;11.376;2023-06-05T11:48:43;5.17;;;2.60;;
9447;SDS011;4762;48.128;11.376;2023-06-05T11:50:52;7.30;;;2.80;;
9447;SDS011;4762;48.128;11.376;2023-06-05T11:58:00;5.40;;;3.00;;
9447;SDS011;4762;48.128;11.376;2023-06-05T12:00:03;4.33;;;2.07;;
9447;SDS011;4762;48.128;11.376;2023-06-05T12:02:06;5.73;;;2.90;;
9447;SDS011;4762;48.128;11.376;2023-06-05T12:04:08;5.40;;;3.00;;
9447;SDS011;4762;48.128;11.376;2023-06-05T12:06:11;6.10;;;2.60;;
9447;SDS011;4762;48.128;11.376;2023-06-05T12:10:32;5.60;;;2.53;;
9447;SDS011;4762;48.128;11.376;2023-06-05T12:12:25;6.43;;;3.30;;
9447;SDS011;4762;48.128;11.376;2023-06-05T12:14:29;4.80;;;2.43;;
9447;SDS011;4762;48.128;11.376;2023-06-05T12:16:31;5.60;;;2.43;;
9447;SDS011;4762;48.128;11.376;2023-06-05T12:18:33;4.20;;;2.00;;
9447;SDS011;4762;48.128;11.376;2023-06-05T12:20:38;5.13;;;2.50;;
9447;SDS011;4762;48.128;11.376;2023-06-05T12:22:41;6.20;;;2.60;;
9447;SDS011;4762;48.128;11.376;2023-06-05T12:24:43;5.37;;;2.80;;
9447;SDS011;4762;48.128;11.376;2023-06-05T12:26:49;5.10;;;2.13;;
9447;SDS011;4762;48.128;11.376;2023-06-05T12:29:05;4.60;;;2.33;;
9447;SDS011;4762;48.128;11.376;2023-06-05T12:31:08;5.50;;;2.90;;
9447;SDS011;4762;48.128;11.376;2023-06-05T12:33:10;6.33;;;2.43;;
9447;SDS011;4762;48.128;11.376;2023-06-05T12:35:18;5.07;;;2.27;;
9447;SDS011;4762;48.128;11.376;2023-06-05T12:37:23;3.97;;;2.10;;
9447;SDS011;4762;48.128;11.376;2023-06-05T12:39:26;6.33;;;2.60;;
9447;SDS011;4762;48.128;11.376;2023-06-05T12:41:29;8.60;;;3.27;;
9447;SDS011;4762;48.128;11.376;2023-06-05T12:43:31;5.03;;;2.90;;
9447;SDS011;4762;48.128;11.376;2023-06-05T12:45:33;5.30;;;2.60;;
9447;SDS011;4762;48.128;11.376;2023-06-05T12:47:37;4.90;;;2.30;;
9447;SDS011;4762;48.128;11.376;2023-06-05T12:49:39;6.00;;;2.40;;
9447;SDS011;4762;48.128;11.376;2023-06-05T12:51:42;4.03;;;2.17;;
9447;SDS011;4762;48.128;11.376;2023-06-05T12:53:44;5.43;;;2.50;;
9447;SDS011;4762;48.128;11.376;2023-06-05T12:55:49;6.00;;;2.47;;
9447;SDS011;4762;48.128;11.376;2023-06-05T12:57:52;5.30;;;2.57;;
9447;SDS011;4762;48.128;11.376;2023-06-05T12:59:54;5.40;;;2.50;;
9447;SDS011;4762;48.128;11.376;2023-06-05T13:02:03;4.93;;;2.37;;
9447;SDS011;4762;48.128;11.376;2023-06-05T13:04:05;4.47;;;1.97;;
9447;SDS011;4762;48.128;11.376;2023-06-05T13:06:07;4.37;;;1.80;;